Time;durP1;ratioP1;P1;durP2;ratioP2;P2;SDS_P1;SDS_P2;PMS_P1;PMS_P2;Temp;Humidity;BMP_temperature;BMP_pressure;BME280_temperature;BME280_humidity;BME280_pressure;Samples;Min_cycle;Max_cycle;Signal;HPM_P1;HPM_P2
2022/09/07 00:00:25;;;;;;;5.30;2.90;;;17.10;96.30;;;;;;5082127;28;20513;-69
2022/09/07 00:02:52;;;;;;;5.75;3.45;;;17.20;96.50;;;;;;5082663;28;20853;-72
2022/09/07 00:05:20;;;;;;;5.60;3.63;;;17.30;97.00;;;;;;5081976;28;20973;-71
2022/09/07 00:07:47;;;;;;;3.85;2.88;;;17.50;97.30;;;;;;5083157;28;20846;-71
2022/09/07 00:10:14;;;;;;;6.05;2.92;;;17.60;97.40;;;;;;5083650;28;20562;-69
2022/09/07 00:12:41;;;;;;;4.63;2.67;;;17.60;97.40;;;;;;5080746;28;20440;-70
2022/09/07 00:15:11;;;;;;;3.80;2.80;;;17.70;97.60;;;;;;5076190;28;20746;-71
2022/09/07 00:17:38;;;;;;;4.63;3.25;;;17.70;97.60;;;;;;5083452;28;20885;-70
2022/09/07 00:20:07;;;;;;;3.25;2.50;;;17.70;98.00;;;;;;5081874;28;20496;-71
2022/09/07 00:22:36;;;;;;;5.13;2.63;;;17.70;97.80;;;;;;5073179;28;20418;-71
2022/09/07 00:25:04;;;;;;;2.72;2.50;;;17.60;97.50;;;;;;5083544;28;20513;-71
2022/09/07 00:27:31;;;;;;;7.40;3.80;;;17.50;97.50;;;;;;5083762;28;20430;-71
2022/09/07 00:29:58;;;;;;;5.55;3.30;;;17.60;98.00;;;;;;5081822;28;20778;-72
2022/09/07 00:32:25;;;;;;;6.43;3.38;;;17.60;98.00;;;;;;5074170;28;20894;-71
2022/09/07 00:34:51;;;;;;;4.65;3.70;;;17.70;98.30;;;;;;5081338;28;21055;-71
2022/09/07 00:37:18;;;;;;;5.95;3.80;;;17.80;98.40;;;;;;5065788;28;20411;-69
2022/09/07 00:39:48;;;;;;;4.35;3.30;;;17.80;98.60;;;;;;5069291;28;20413;-70
2022/09/07 00:42:16;;;;;;;5.40;3.42;;;17.90;98.70;;;;;;5080478;28;20873;-70
2022/09/07 00:45:01;;;;;;;5.45;3.67;;;18.00;98.60;;;;;;5073663;28;20457;-70
2022/09/07 00:47:35;;;;;;;4.40;3.40;;;18.00;98.60;;;;;;5082839;28;20427;-70
2022/09/07 00:50:07;;;;;;;3.20;2.90;;;17.90;98.60;;;;;;5081312;28;20446;-70
2022/09/07 00:52:36;;;;;;;3.80;2.90;;;17.90;98.60;;;;;;5078272;28;20555;-70
2022/09/07 00:55:09;;;;;;;3.63;2.70;;;18.00;98.80;;;;;;5082757;28;20923;-70
2022/09/07 00:57:37;;;;;;;4.55;2.90;;;17.90;98.70;;;;;;5080617;28;20459;-69
2022/09/07 01:00:06;;;;;;;5.07;3.60;;;17.90;98.70;;;;;;5082344;28;20509;-70
2022/09/07 01:02:32;;;;;;;3.60;3.08;;;18.00;98.90;;;;;;5082785;28;20424;-69
2022/09/07 01:05:05;;;;;;;4.03;3.05;;;17.90;98.80;;;;;;5084119;28;20464;-69
2022/09/07 01:07:33;;;;;;;4.72;3.08;;;17.90;98.70;;;;;;5066917;28;20427;-69
2022/09/07 01:10:01;;;;;;;4.55;2.85;;;17.90;99.00;;;;;;5084533;28;20497;-71
2022/09/07 01:12:30;;;;;;;3.83;3.00;;;17.90;98.90;;;;;;5084025;28;20429;-71
2022/09/07 01:14:57;;;;;;;3.95;2.40;;;17.90;99.40;;;;;;5080408;28;20511;-70
2022/09/07 01:17:36;;;;;;;3.67;2.50;;;17.90;98.90;;;;;;5087850;28;20418;-70
2022/09/07 01:20:42;;;;;;;4.10;3.00;;;17.80;98.80;;;;;;5084670;28;22509;-70
2022/09/07 01:23:38;;;;;;;4.13;2.70;;;17.80;98.90;;;;;;5081569;28;20422;-70
2022/09/07 01:26:56;;;;;;;2.88;2.50;;;17.80;98.90;;;;;;5084432;28;20442;-70
2022/09/07 01:29:32;;;;;;;3.97;2.60;;;17.70;98.90;;;;;;5075910;28;20415;-70
2022/09/07 01:32:07;;;;;;;2.58;2.38;;;17.70;98.90;;;;;;5085970;28;20484;-70
2022/09/07 01:34:34;;;;;;;3.70;2.80;;;17.70;98.90;;;;;;5100826;22;20438;-70
2022/09/07 01:37:07;;;;;;;4.40;2.70;;;17.80;99.10;;;;;;5099464;28;20526;-70
2022/09/07 01:39:41;;;;;;;2.97;2.50;;;17.70;99.20;;;;;;5111914;28;20455;-70
2022/09/07 01:42:12;;;;;;;4.55;2.75;;;17.80;99.30;;;;;;5103361;28;20422;-70
2022/09/07 01:44:45;;;;;;;2.92;2.30;;;17.80;99.30;;;;;;5071572;28;20430;-71
2022/09/07 01:47:17;;;;;;;3.40;2.60;;;17.80;99.20;;;;;;5091610;28;20874;-72
2022/09/07 01:49:48;;;;;;;3.17;2.10;;;17.80;99.40;;;;;;5090527;28;20425;-71
2022/09/07 01:52:34;;;;;;;3.08;2.30;;;17.70;99.20;;;;;;5084429;28;20417;-71
2022/09/07 01:55:05;;;;;;;4.40;2.10;;;17.70;99.30;;;;;;5081799;28;20439;-70
2022/09/07 01:57:37;;;;;;;2.80;2.47;;;17.80;99.30;;;;;;5089770;28;20414;-74
2022/09/07 02:00:10;;;;;;;2.83;2.20;;;17.70;99.30;;;;;;5091196;28;20428;-72
2022/09/07 02:02:42;;;;;;;3.63;1.95;;;17.70;99.20;;;;;;5091101;28;20430;-72
2022/09/07 02:05:13;;;;;;;2.53;1.90;;;17.50;98.60;;;;;;5076614;28;20436;-72
2022/09/07 02:07:45;;;;;;;3.10;2.30;;;17.50;98.90;;;;;;5086811;28;20441;-70
2022/09/07 02:10:17;;;;;;;3.15;1.80;;;17.50;99.00;;;;;;5089194;28;20432;-70
2022/09/07 02:12:50;;;;;;;3.10;1.80;;;17.50;98.80;;;;;;5090976;28;20421;-72
2022/09/07 02:15:23;;;;;;;2.72;2.10;;;17.40;98.80;;;;;;5091410;28;20420;-71
2022/09/07 02:17:53;;;;;;;3.50;2.00;;;17.40;98.80;;;;;;5090545;28;20430;-70
2022/09/07 02:20:25;;;;;;;3.15;2.03;;;17.30;98.70;;;;;;5090726;28;20425;-70
2022/09/07 02:23:00;;;;;;;3.10;2.00;;;17.30;98.80;;;;;;5077015;28;20851;-71
2022/09/07 02:25:33;;;;;;;3.20;1.85;;;17.30;98.80;;;;;;5084389;28;20418;-72
2022/09/07 02:28:08;;;;;;;2.92;1.98;;;17.30;98.70;;;;;;5091950;28;20487;-73
2022/09/07 02:30:37;;;;;;;4.00;2.00;;;17.30;98.70;;;;;;5094435;28;20509;-71
2022/09/07 02:33:04;;;;;;;3.10;2.40;;;17.30;98.70;;;;;;5113528;28;20497;-72
2022/09/07 02:35:31;;;;;;;3.90;2.40;;;17.20;98.60;;;;;;5106041;28;21060;-69
2022/09/07 02:38:00;;;;;;;3.00;1.90;;;17.30;98.70;;;;;;5116550;28;20475;-71
2022/09/07 02:40:27;;;;;;;2.22;1.98;;;17.30;98.50;;;;;;5117539;28;20410;-71
2022/09/07 02:42:54;;;;;;;2.97;2.30;;;17.30;98.20;;;;;;5116548;28;20405;-70
2022/09/07 02:45:21;;;;;;;2.67;2.47;;;17.20;98.00;;;;;;5116052;28;20428;-71
2022/09/07 02:48:11;;;;;;;3.28;2.97;;;17.20;97.70;;;;;;5106419;28;20433;-71
2022/09/07 02:51:03;;;;;;;3.58;2.80;;;17.30;97.60;;;;;;5084882;28;20911;-70
2022/09/07 02:53:48;;;;;;;2.75;2.15;;;17.20;97.40;;;;;;5079764;28;21251;-70
2022/09/07 02:56:27;;;;;;;3.42;3.10;;;17.20;97.30;;;;;;5078704;28;20420;-71
2022/09/07 02:59:06;;;;;;;3.65;3.30;;;17.20;97.20;;;;;;5093761;28;20413;-71
2022/09/07 03:01:40;;;;;;;4.85;3.88;;;17.20;97.30;;;;;;5081331;28;20418;-70
2022/09/07 03:04:14;;;;;;;5.38;4.35;;;17.20;97.10;;;;;;5098289;28;20421;-70
2022/09/07 03:06:47;;;;;;;5.00;4.50;;;17.20;97.30;;;;;;5102060;28;20460;-70
2022/09/07 03:09:19;;;;;;;4.40;4.00;;;17.20;97.30;;;;;;5109397;28;20486;-72
2022/09/07 03:11:46;;;;;;;5.30;4.80;;;17.20;97.20;;;;;;5112833;28;20422;-70
2022/09/07 03:14:15;;;;;;;4.55;4.15;;;17.20;97.40;;;;;;5112422;28;20422;-70
2022/09/07 03:16:42;;;;;;;4.25;3.85;;;17.20;97.40;;;;;;5109852;28;20871;-69
2022/09/07 03:19:10;;;;;;;5.60;5.20;;;17.20;97.40;;;;;;5089935;28;20429;-70
2022/09/07 03:21:37;;;;;;;6.00;5.40;;;17.20;97.50;;;;;;5081455;28;20418;-70
2022/09/07 03:24:05;;;;;;;7.60;6.90;;;17.20;97.50;;;;;;5089427;28;20440;-71
2022/09/07 03:26:32;;;;;;;8.15;7.38;;;17.20;97.50;;;;;;5090472;28;20409;-70
2022/09/07 03:28:58;;;;;;;8.98;8.07;;;17.20;97.60;;;;;;5090157;28;20422;-70
2022/09/07 03:31:25;;;;;;;7.30;6.70;;;17.20;97.60;;;;;;5089943;28;20590;-70
2022/09/07 03:33:53;;;;;;;6.90;6.30;;;17.20;97.50;;;;;;5086894;28;20429;-72
2022/09/07 03:36:21;;;;;;;6.53;6.03;;;17.20;97.60;;;;;;5084853;28;20980;-70
2022/09/07 03:38:47;;;;;;;7.40;6.70;;;17.20;97.50;;;;;;5085303;28;20426;-70
2022/09/07 03:41:14;;;;;;;6.97;6.37;;;17.20;97.50;;;;;;5078223;28;20484;-71
2022/09/07 03:43:41;;;;;;;9.38;8.57;;;17.20;97.50;;;;;;5089877;28;21261;-70
2022/09/07 03:46:09;;;;;;;8.60;7.80;;;17.20;97.30;;;;;;5090143;28;20421;-70
2022/09/07 03:48:37;;;;;;;7.90;7.15;;;17.10;97.20;;;;;;5089417;28;20498;-70
2022/09/07 03:51:06;;;;;;;5.80;5.30;;;17.20;97.40;;;;;;5094160;28;20431;-71
2022/09/07 03:53:35;;;;;;;5.07;4.57;;;17.20;97.30;;;;;;5102782;28;20486;-70
2022/09/07 03:56:04;;;;;;;5.30;4.80;;;17.10;97.10;;;;;;5114346;28;20401;-70
2022/09/07 03:58:32;;;;;;;5.20;4.70;;;17.10;97.10;;;;;;5090579;28;20530;-69
2022/09/07 04:01:04;;;;;;;5.30;4.80;;;17.10;97.10;;;;;;5086459;28;20799;-69
2022/09/07 04:03:30;;;;;;;5.50;5.00;;;17.20;97.10;;;;;;5080561;28;20819;-70
2022/09/07 04:05:58;;;;;;;5.80;5.20;;;17.10;97.00;;;;;;5087775;28;20422;-70
2022/09/07 04:08:25;;;;;;;5.65;5.15;;;17.00;97.00;;;;;;5084912;28;20436;-70
2022/09/07 04:10:56;;;;;;;6.30;4.87;;;17.00;97.10;;;;;;5085143;28;20562;-69
2022/09/07 04:13:22;;;;;;;5.90;5.28;;;17.00;97.10;;;;;;5079627;28;20462;-69
2022/09/07 04:15:49;;;;;;;5.65;4.93;;;17.00;97.60;;;;;;5083394;28;20430;-69
2022/09/07 04:18:16;;;;;;;7.00;5.55;;;17.00;97.20;;;;;;5085687;28;20769;-69
2022/09/07 04:20:43;;;;;;;5.32;4.70;;;17.00;97.20;;;;;;5087552;28;20491;-71
2022/09/07 04:23:10;;;;;;;6.65;5.40;;;17.00;97.20;;;;;;5087491;28;20421;-72
2022/09/07 04:25:37;;;;;;;5.57;5.05;;;17.00;97.20;;;;;;5079431;28;20421;-71
2022/09/07 04:28:05;;;;;;;5.63;5.03;;;17.00;97.40;;;;;;5087475;28;20429;-72
2022/09/07 04:30:35;;;;;;;5.65;4.70;;;17.00;96.90;;;;;;5085224;28;20418;-72
2022/09/07 04:33:01;;;;;;;4.68;4.07;;;17.00;96.80;;;;;;5086859;28;20472;-72
2022/09/07 04:35:28;;;;;;;4.73;4.33;;;16.90;96.70;;;;;;5079098;28;20417;-72
2022/09/07 04:37:55;;;;;;;4.20;3.80;;;16.90;96.70;;;;;;5086411;28;20429;-72
2022/09/07 04:40:22;;;;;;;5.07;3.67;;;17.00;96.60;;;;;;5085845;28;20448;-72
2022/09/07 04:42:49;;;;;;;4.20;3.80;;;16.90;96.40;;;;;;5084439;28;20420;-72
2022/09/07 04:45:17;;;;;;;4.63;3.97;;;16.90;96.80;;;;;;5087802;28;20490;-73
2022/09/07 04:47:47;;;;;;;3.70;3.40;;;16.90;96.40;;;;;;5087722;28;20799;-72
2022/09/07 04:50:14;;;;;;;3.65;3.30;;;16.90;96.40;;;;;;5079233;28;20485;-72
2022/09/07 04:52:41;;;;;;;4.00;3.70;;;16.90;96.40;;;;;;5079585;28;20418;-71
2022/09/07 04:55:08;;;;;;;4.28;3.50;;;16.90;96.40;;;;;;5089271;28;20575;-73
2022/09/07 04:57:35;;;;;;;4.75;4.22;;;16.90;96.30;;;;;;5085546;28;20501;-72
2022/09/07 05:00:03;;;;;;;5.00;4.60;;;16.80;96.40;;;;;;5077885;28;20418;-71
2022/09/07 05:02:31;;;;;;;6.57;4.82;;;16.80;96.50;;;;;;5084273;28;20438;-72
2022/09/07 05:04:58;;;;;;;5.00;4.50;;;16.80;96.40;;;;;;5081027;28;20912;-71
2022/09/07 05:07:25;;;;;;;5.80;5.20;;;16.80;96.50;;;;;;5084095;28;20428;-69
2022/09/07 05:09:51;;;;;;;5.93;5.43;;;16.80;96.60;;;;;;5081559;28;20789;-75
2022/09/07 05:12:18;;;;;;;5.75;5.15;;;16.80;96.70;;;;;;5086830;28;20490;-76
2022/09/07 05:14:45;;;;;;;5.40;4.90;;;16.80;96.70;;;;;;5089051;28;20516;-77
2022/09/07 05:17:12;;;;;;;6.30;5.70;;;16.90;96.90;;;;;;5088698;28;20517;-76
2022/09/07 05:19:40;;;;;;;8.90;7.10;;;16.90;97.10;;;;;;5085053;28;20511;-76
2022/09/07 05:22:07;;;;;;;8.48;7.78;;;17.00;97.20;;;;;;5100599;28;20489;-75
2022/09/07 05:24:35;;;;;;;7.47;6.78;;;17.00;97.30;;;;;;5104923;28;20435;-78
2022/09/07 05:27:02;;;;;;;8.60;7.70;;;17.00;97.30;;;;;;5101728;28;20451;-76
2022/09/07 05:29:29;;;;;;;7.50;6.80;;;17.10;97.40;;;;;;5098509;28;20429;-75
2022/09/07 05:31:57;;;;;;;7.40;6.70;;;17.10;97.40;;;;;;5096153;28;20406;-75
2022/09/07 05:34:24;;;;;;;7.47;6.78;;;17.10;97.30;;;;;;5089888;28;20961;-75
2022/09/07 05:36:52;;;;;;;7.30;6.70;;;17.20;97.30;;;;;;5089374;28;20428;-75
2022/09/07 05:39:19;;;;;;;8.40;7.60;;;17.20;97.10;;;;;;5082815;28;20779;-76
2022/09/07 05:41:46;;;;;;;10.82;9.93;;;17.10;97.00;;;;;;5090219;28;20474;-76
2022/09/07 05:44:13;;;;;;;10.27;9.32;;;17.10;96.90;;;;;;5080811;28;20812;-76
2022/09/07 05:46:40;;;;;;;12.18;11.07;;;17.10;96.80;;;;;;5084896;28;20470;-74
2022/09/07 05:49:07;;;;;;;13.95;12.65;;;17.20;96.60;;;;;;5090933;28;20448;-77
2022/09/07 05:51:35;;;;;;;13.47;12.07;;;17.20;96.60;;;;;;5086389;28;20447;-76
2022/09/07 05:54:04;;;;;;;14.52;13.07;;;17.30;96.60;;;;;;5094407;28;20406;-74
2022/09/07 05:56:34;;;;;;;17.77;16.03;;;17.20;96.60;;;;;;5092546;28;20421;-75
2022/09/07 05:59:00;;;;;;;21.42;19.33;;;17.20;96.60;;;;;;5092650;28;20410;-76
2022/09/07 06:01:27;;;;;;;21.77;19.55;;;17.30;96.40;;;;;;5089940;28;20436;-75
2022/09/07 06:03:54;;;;;;;23.10;20.77;;;17.30;96.30;;;;;;5090556;28;20436;-74
2022/09/07 06:06:21;;;;;;;23.35;21.15;;;17.30;96.30;;;;;;5084212;28;20424;-76
2022/09/07 06:08:49;;;;;;;20.95;19.05;;;17.20;96.30;;;;;;5092124;28;20454;-75
2022/09/07 06:11:19;;;;;;;21.48;19.48;;;17.20;96.40;;;;;;5091742;28;20421;-74
2022/09/07 06:13:46;;;;;;;20.90;18.90;;;17.30;96.50;;;;;;5091243;28;20430;-75
2022/09/07 06:16:14;;;;;;;21.30;19.40;;;17.30;96.50;;;;;;5092140;28;20926;-75
2022/09/07 06:18:42;;;;;;;20.50;18.60;;;17.30;96.30;;;;;;5094577;28;20442;-74
2022/09/07 06:21:11;;;;;;;22.08;20.08;;;17.30;96.30;;;;;;5117695;28;20513;-75
2022/09/07 06:23:39;;;;;;;20.67;18.67;;;17.30;96.20;;;;;;5118411;28;20390;-75
2022/09/07 06:26:06;;;;;;;22.60;20.60;;;17.40;96.00;;;;;;5117308;28;20413;-75
2022/09/07 06:28:36;;;;;;;22.00;20.02;;;17.40;96.00;;;;;;5095135;28;20430;-74
2022/09/07 06:31:06;;;;;;;20.13;18.33;;;17.40;95.90;;;;;;5090941;28;20413;-74
2022/09/07 06:33:33;;;;;;;21.63;19.52;;;17.50;95.90;;;;;;5093844;28;20440;-75
2022/09/07 06:36:02;;;;;;;20.08;18.17;;;17.50;95.80;;;;;;5102929;28;20410;-75
2022/09/07 06:38:30;;;;;;;19.25;17.45;;;17.60;95.70;;;;;;5116554;28;20469;-76
2022/09/07 06:41:00;;;;;;;20.30;18.50;;;17.60;95.50;;;;;;5115032;28;20447;-76
2022/09/07 06:43:27;;;;;;;20.60;18.60;;;17.60;95.20;;;;;;5102333;28;20420;-75
2022/09/07 06:45:55;;;;;;;18.10;16.40;;;17.60;95.30;;;;;;5092077;28;20411;-75
2022/09/07 06:48:22;;;;;;;17.23;15.63;;;17.70;95.20;;;;;;5092097;28;20422;-74
2022/09/07 06:50:57;;;;;;;16.98;15.43;;;17.70;94.90;;;;;;5084724;28;20740;-74
2022/09/07 06:53:24;;;;;;;16.63;15.10;;;17.80;95.10;;;;;;5089768;28;20410;-74
2022/09/07 06:55:51;;;;;;;16.80;15.30;;;17.80;94.70;;;;;;5090861;28;20414;-75
2022/09/07 06:58:18;;;;;;;15.95;14.45;;;17.90;95.00;;;;;;5085239;28;20814;-74
2022/09/07 07:00:45;;;;;;;15.40;14.02;;;18.00;94.20;;;;;;5086329;28;20428;-74
2022/09/07 07:03:13;;;;;;;15.82;14.43;;;18.00;94.00;;;;;;5094249;28;20412;-75
2022/09/07 07:05:40;;;;;;;14.65;13.40;;;18.00;93.90;;;;;;5111581;28;20442;-75
2022/09/07 07:08:07;;;;;;;15.98;14.38;;;18.10;93.90;;;;;;5111880;28;20905;-74
2022/09/07 07:10:38;;;;;;;15.07;13.75;;;18.10;93.80;;;;;;5092585;28;20436;-74
2022/09/07 07:13:05;;;;;;;13.90;12.70;;;18.10;93.60;;;;;;5111278;28;20406;-76
2022/09/07 07:15:32;;;;;;;12.80;11.70;;;18.20;93.50;;;;;;5108489;28;20452;-75
2022/09/07 07:17:59;;;;;;;13.40;12.20;;;18.30;93.20;;;;;;5108129;28;20456;-75
2022/09/07 07:20:28;;;;;;;12.75;11.75;;;18.40;93.30;;;;;;5100687;28;20442;-74
2022/09/07 07:22:55;;;;;;;12.45;11.45;;;18.40;93.70;;;;;;5109229;28;21036;-73
2022/09/07 07:25:22;;;;;;;10.68;9.77;;;18.60;92.90;;;;;;5095334;28;20499;-74
2022/09/07 07:27:49;;;;;;;10.33;9.50;;;18.80;92.50;;;;;;5097929;28;20417;-75
2022/09/07 07:30:17;;;;;;;9.90;9.10;;;19.00;91.20;;;;;;5091957;28;20422;-73
2022/09/07 07:32:45;;;;;;;9.40;8.60;;;19.10;90.70;;;;;;5091726;28;20507;-74
2022/09/07 07:35:12;;;;;;;8.45;7.70;;;19.30;91.00;;;;;;5093693;28;20434;-76
2022/09/07 07:37:41;;;;;;;8.65;8.05;;;19.50;90.30;;;;;;5086242;28;20458;-75
2022/09/07 07:40:10;;;;;;;9.10;8.30;;;19.60;89.50;;;;;;5094167;28;20798;-75
2022/09/07 07:42:38;;;;;;;8.50;7.80;;;19.70;89.30;;;;;;5087959;28;20798;-75
2022/09/07 07:45:07;;;;;;;7.90;7.30;;;19.80;88.40;;;;;;5084157;28;20526;-75
2022/09/07 07:47:34;;;;;;;7.78;7.18;;;20.10;87.00;;;;;;5085840;28;20440;-74
2022/09/07 07:50:01;;;;;;;6.32;5.82;;;20.40;85.90;;;;;;5083933;28;20423;-73
2022/09/07 07:52:32;;;;;;;6.50;5.90;;;20.70;82.30;;;;;;5079557;28;20433;-74
2022/09/07 07:55:00;;;;;;;5.10;4.70;;;21.10;83.10;;;;;;5089683;28;20955;-74
2022/09/07 07:57:27;;;;;;;4.60;4.20;;;21.40;80.50;;;;;;5083226;28;20422;-75
2022/09/07 07:59:54;;;;;;;4.50;4.10;;;21.80;80.20;;;;;;5091595;28;20418;-75
2022/09/07 08:02:22;;;;;;;4.00;3.60;;;22.10;77.50;;;;;;5088683;28;20799;-75
2022/09/07 08:04:49;;;;;;;4.47;4.07;;;22.20;77.50;;;;;;5090215;28;20428;-74
2022/09/07 08:07:16;;;;;;;5.78;4.50;;;22.20;74.90;;;;;;5090312;28;20414;-75
2022/09/07 08:09:45;;;;;;;5.30;4.10;;;22.10;75.00;;;;;;5089083;28;20773;-75
2022/09/07 08:12:15;;;;;;;5.10;3.30;;;22.10;74.70;;;;;;5081004;28;20418;-76
2022/09/07 08:14:42;;;;;;;3.80;3.40;;;22.10;74.20;;;;;;5096522;22;20838;-76
2022/09/07 08:17:11;;;;;;;3.80;3.40;;;22.20;73.40;;;;;;5077827;22;20435;-70
2022/09/07 08:19:38;;;;;;;4.35;3.30;;;22.20;73.50;;;;;;5054096;28;20431;-68
2022/09/07 08:22:05;;;;;;;3.10;2.80;;;22.30;72.20;;;;;;5064127;28;20434;-69
2022/09/07 08:24:32;;;;;;;3.75;3.15;;;22.40;69.50;;;;;;5057723;28;20439;-69
2022/09/07 08:26:59;;;;;;;4.82;3.03;;;22.40;70.70;;;;;;5062574;28;20419;-69
2022/09/07 08:29:28;;;;;;;4.20;2.75;;;22.40;72.10;;;;;;5067158;28;20432;-69
2022/09/07 08:31:55;;;;;;;3.60;3.00;;;22.70;71.40;;;;;;5065180;28;20431;-69
2022/09/07 08:34:22;;;;;;;4.07;3.07;;;22.90;72.00;;;;;;5061978;28;21085;-69
2022/09/07 08:36:48;;;;;;;4.13;3.73;;;23.30;68.90;;;;;;5066009;28;20477;-70
2022/09/07 08:39:15;;;;;;;3.92;3.53;;;23.40;68.30;;;;;;5063068;28;20618;-69
2022/09/07 08:41:56;;;;;;;3.40;3.10;;;23.40;67.80;;;;;;5066772;28;20434;-69
2022/09/07 08:44:26;;;;;;;3.30;2.90;;;23.40;67.10;;;;;;5067262;28;20407;-69
2022/09/07 08:46:57;;;;;;;3.53;3.23;;;23.20;66.90;;;;;;5066166;28;20525;-69
2022/09/07 08:49:41;;;;;;;3.77;3.47;;;23.10;66.90;;;;;;5065490;28;20766;-69
2022/09/07 08:52:12;;;;;;;3.85;3.40;;;22.80;68.40;;;;;;5061318;28;20435;-69
2022/09/07 08:54:42;;;;;;;3.65;3.35;;;22.80;68.90;;;;;;5066920;28;20411;-69
2022/09/07 08:57:09;;;;;;;3.80;3.40;;;22.90;68.50;;;;;;5067164;28;20411;-69
2022/09/07 08:59:40;;;;;;;4.20;3.00;;;23.00;68.00;;;;;;5066925;28;20454;-69
2022/09/07 09:02:13;;;;;;;4.95;3.42;;;23.00;69.60;;;;;;5065166;28;21039;-69
2022/09/07 09:04:41;;;;;;;3.60;3.30;;;23.20;68.00;;;;;;5067425;28;20999;-69
2022/09/07 09:07:17;;;;;;;3.80;3.50;;;23.40;67.50;;;;;;5067045;28;20773;-69
2022/09/07 09:10:06;;;;;;;3.57;3.27;;;23.50;66.60;;;;;;5078881;28;20498;-70
2022/09/07 09:12:54;;;;;;;3.63;3.20;;;23.80;65.40;;;;;;5062687;28;20829;-69
2022/09/07 09:15:29;;;;;;;3.33;2.40;;;23.90;65.40;;;;;;5059978;28;20442;-69
2022/09/07 09:18:05;;;;;;;2.88;2.45;;;24.10;64.00;;;;;;5068522;28;20457;-70
2022/09/07 09:20:39;;;;;;;2.90;2.40;;;24.20;62.90;;;;;;5076686;28;20412;-69
2022/09/07 09:23:12;;;;;;;2.88;2.10;;;24.10;63.00;;;;;;5066648;28;20427;-70
2022/09/07 09:25:42;;;;;;;2.20;2.00;;;24.00;63.00;;;;;;5067018;28;20441;-69
2022/09/07 09:28:12;;;;;;;2.90;2.13;;;23.90;63.60;;;;;;5070862;28;20793;-69
2022/09/07 09:30:38;;;;;;;2.67;2.30;;;24.10;63.20;;;;;;5065671;28;20431;-69
2022/09/07 09:33:22;;;;;;;2.78;2.00;;;24.40;62.40;;;;;;5069305;28;20443;-69
2022/09/07 09:35:51;;;;;;;4.50;1.92;;;24.60;62.70;;;;;;5068663;28;20435;-69
2022/09/07 09:38:30;;;;;;;1.90;1.80;;;25.00;61.60;;;;;;5067870;28;20432;-68
2022/09/07 09:40:59;;;;;;;3.47;2.08;;;25.40;60.30;;;;;;5065194;28;20777;-68
2022/09/07 09:43:30;;;;;;;2.73;1.70;;;25.80;59.20;;;;;;5083437;28;20443;-69
2022/09/07 09:45:57;;;;;;;2.70;1.80;;;26.30;56.20;;;;;;5070637;28;20435;-69
2022/09/07 09:48:32;;;;;;;1.90;1.70;;;26.60;56.50;;;;;;5067328;28;20444;-69
2022/09/07 09:51:01;;;;;;;3.03;1.70;;;26.40;54.20;;;;;;5059835;28;20554;-69
2022/09/07 09:53:31;;;;;;;1.50;1.40;;;26.30;55.60;;;;;;5070615;28;20427;-69
2022/09/07 09:56:00;;;;;;;2.10;1.38;;;26.30;56.30;;;;;;5070591;28;20419;-69
2022/09/07 09:58:30;;;;;;;2.73;1.87;;;26.20;56.60;;;;;;5070110;28;20481;-69
2022/09/07 10:01:00;;;;;;;2.75;1.60;;;26.10;55.60;;;;;;5069807;28;20419;-69
2022/09/07 10:03:29;;;;;;;2.70;2.00;;;26.00;55.10;;;;;;5069094;28;20431;-69
2022/09/07 10:05:57;;;;;;;2.80;1.60;;;25.90;54.60;;;;;;5070283;28;20416;-69
2022/09/07 10:08:25;;;;;;;3.38;2.28;;;25.90;55.80;;;;;;5069896;28;20790;-69
2022/09/07 10:10:54;;;;;;;2.58;1.80;;;26.00;53.70;;;;;;5069594;28;20487;-68
2022/09/07 10:13:23;;;;;;;2.20;1.55;;;26.20;53.70;;;;;;5069949;28;20416;-69
2022/09/07 10:15:55;;;;;;;1.42;1.10;;;26.50;52.20;;;;;;5068927;28;20450;-69
2022/09/07 10:18:31;;;;;;;2.20;1.40;;;26.50;53.10;;;;;;5071974;28;20411;-69
2022/09/07 10:21:13;;;;;;;2.20;1.40;;;26.70;52.80;;;;;;5060995;28;20427;-69
2022/09/07 10:23:40;;;;;;;2.25;1.60;;;26.80;51.90;;;;;;5065398;28;20426;-69
2022/09/07 10:26:22;;;;;;;3.00;1.60;;;26.60;50.90;;;;;;5079264;28;20413;-69
2022/09/07 10:28:48;;;;;;;2.25;1.77;;;26.40;52.30;;;;;;5071552;28;20420;-68
2022/09/07 10:31:24;;;;;;;3.20;1.70;;;26.30;51.80;;;;;;5060756;28;20432;-69
2022/09/07 10:34:02;;;;;;;2.80;1.70;;;26.10;53.30;;;;;;5069891;28;20498;-69
2022/09/07 10:36:38;;;;;;;1.85;1.58;;;26.20;53.40;;;;;;5068659;28;20826;-69
2022/09/07 10:39:11;;;;;;;2.00;1.50;;;26.60;53.70;;;;;;5069842;28;20419;-69
2022/09/07 10:41:45;;;;;;;2.17;1.42;;;27.00;52.20;;;;;;5069788;28;20792;-69
2022/09/07 10:44:21;;;;;;;1.60;1.30;;;27.50;52.10;;;;;;5069921;28;20430;-69
2022/09/07 10:46:56;;;;;;;2.90;1.63;;;28.10;51.70;;;;;;5068852;28;20522;-70
2022/09/07 10:49:30;;;;;;;2.90;1.52;;;28.50;47.80;;;;;;5069420;28;20415;-70
2022/09/07 10:52:09;;;;;;;1.42;1.15;;;28.90;47.80;;;;;;5069200;28;20424;-70
2022/09/07 10:54:46;;;;;;;2.27;1.53;;;29.30;47.90;;;;;;5069578;28;20419;-71
2022/09/07 10:57:28;;;;;;;1.60;1.25;;;29.70;47.40;;;;;;5070083;28;20494;-70
2022/09/07 11:00:02;;;;;;;1.27;1.10;;;30.10;45.50;;;;;;5066684;28;20423;-71
2022/09/07 11:02:38;;;;;;;1.50;1.20;;;30.30;45.50;;;;;;5067945;28;20932;-71
2022/09/07 11:05:18;;;;;;;1.40;1.30;;;30.50;43.50;;;;;;5069278;28;20430;-70
2022/09/07 11:08:01;;;;;;;2.05;1.10;;;30.30;42.60;;;;;;5068215;28;20438;-70
2022/09/07 11:10:37;;;;;;;1.65;1.30;;;29.70;44.30;;;;;;5068543;28;21093;-69
2022/09/07 11:13:07;;;;;;;3.20;1.40;;;29.10;45.60;;;;;;5069151;28;20404;-70
2022/09/07 11:15:40;;;;;;;1.92;1.20;;;28.60;47.20;;;;;;5071204;28;20519;-70
2022/09/07 11:18:13;;;;;;;2.13;1.92;;;28.30;48.50;;;;;;5070835;28;20420;-70
2022/09/07 11:20:49;;;;;;;2.85;2.55;;;28.00;49.70;;;;;;5067716;28;20466;-71
2022/09/07 11:23:20;;;;;;;2.22;1.50;;;27.80;50.30;;;;;;5069309;28;20504;-70
2022/09/07 11:25:56;;;;;;;1.90;1.30;;;27.50;49.80;;;;;;5055876;28;20422;-70
2022/09/07 11:28:26;;;;;;;2.35;1.48;;;27.20;50.00;;;;;;5070450;28;21064;-70
2022/09/07 11:30:57;;;;;;;2.92;1.50;;;26.90;50.60;;;;;;5078070;28;20431;-69
2022/09/07 11:33:29;;;;;;;1.42;1.15;;;26.90;50.70;;;;;;5073427;28;20446;-70
2022/09/07 11:36:02;;;;;;;2.00;1.80;;;26.80;52.60;;;;;;5068740;28;20411;-70
2022/09/07 11:38:33;;;;;;;3.90;1.90;;;26.80;51.00;;;;;;5068722;28;20415;-68
2022/09/07 11:41:22;;;;;;;2.30;1.80;;;26.80;51.90;;;;;;5068067;28;20433;-69
2022/09/07 11:43:57;;;;;;;2.10;1.40;;;27.20;51.50;;;;;;5055543;28;20433;-69
2022/09/07 11:46:31;;;;;;;2.20;1.23;;;27.60;48.50;;;;;;5066790;28;20439;-69
2022/09/07 11:48:58;;;;;;;3.22;1.70;;;27.80;47.80;;;;;;5068123;28;20424;-70
2022/09/07 11:51:38;;;;;;;2.20;1.60;;;27.80;48.70;;;;;;5058079;28;20443;-70
2022/09/07 11:54:17;;;;;;;2.58;1.70;;;27.70;48.70;;;;;;5062786;28;20493;-69
2022/09/07 11:56:50;;;;;;;2.90;1.65;;;27.70;48.70;;;;;;5057935;28;20434;-69
2022/09/07 11:59:28;;;;;;;3.00;1.60;;;27.90;48.40;;;;;;5060586;28;20439;-69
2022/09/07 12:02:09;;;;;;;2.50;1.40;;;27.80;48.70;;;;;;5065304;28;20434;-70
2022/09/07 12:04:52;;;;;;;2.80;1.60;;;27.50;49.10;;;;;;5060941;28;20432;-69
2022/09/07 12:07:41;;;;;;;2.23;1.50;;;27.60;49.80;;;;;;5067671;28;20431;-69
2022/09/07 12:10:33;;;;;;;2.30;1.23;;;27.90;47.10;;;;;;5068215;28;20430;-69
2022/09/07 12:13:27;;;;;;;2.50;1.08;;;28.10;48.00;;;;;;5059117;28;20435;-70
2022/09/07 12:16:00;;;;;;;2.88;1.40;;;28.50;46.70;;;;;;5040820;28;20777;-69
2022/09/07 12:18:49;;;;;;;1.55;1.30;;;28.90;46.50;;;;;;5081241;28;20429;-69
2022/09/07 12:21:31;;;;;;;1.50;1.17;;;29.30;44.40;;;;;;5053871;28;20427;-70
2022/09/07 12:23:59;;;;;;;1.20;1.10;;;29.60;45.00;;;;;;5067430;28;20469;-70
2022/09/07 12:26:51;;;;;;;1.90;1.40;;;29.60;43.20;;;;;;5066957;28;20645;-70
2022/09/07 12:29:21;;;;;;;3.13;1.30;;;29.70;42.70;;;;;;5059431;28;20427;-70
2022/09/07 12:31:50;;;;;;;2.30;1.50;;;29.40;43.40;;;;;;5067254;28;20512;-70
2022/09/07 12:34:46;;;;;;;2.13;1.60;;;28.70;44.50;;;;;;5068058;28;20829;-69
2022/09/07 12:37:36;;;;;;;1.90;1.40;;;28.40;45.60;;;;;;5054825;28;20407;-69
2022/09/07 12:40:36;;;;;;;2.38;1.52;;;28.30;47.70;;;;;;5063775;28;20876;-71
2022/09/07 12:43:51;;;;;;;1.92;1.20;;;29.00;46.30;;;;;;5052328;28;20439;-69
2022/09/07 12:46:40;;;;;;;2.67;1.10;;;29.60;44.30;;;;;;5065331;28;20468;-70
2022/09/07 12:49:21;;;;;;;2.40;1.33;;;30.00;41.10;;;;;;5067927;28;20424;-69
2022/09/07 12:51:58;;;;;;;2.38;1.15;;;29.80;40.90;;;;;;5052790;28;20427;-70
2022/09/07 12:54:32;;;;;;;3.08;1.20;;;29.60;42.70;;;;;;5067478;28;20738;-70
2022/09/07 12:57:02;;;;;;;1.33;1.10;;;29.70;41.40;;;;;;5066622;28;20430;-70
2022/09/07 12:59:48;;;;;;;2.47;1.10;;;29.70;41.40;;;;;;5067535;28;20450;-71
2022/09/07 13:02:59;;;;;;;2.03;1.23;;;29.70;41.90;;;;;;5076634;28;20448;-71
2022/09/07 13:05:39;;;;;;;2.50;1.15;;;29.70;41.40;;;;;;5066500;28;20418;-70